NFFNPHLI

Guest
Details From NFFN - Nadi Intl
To PHLI - Lihue - Kauai
Flight Number -
Tags Generated
Created
Modified
Stats Distance 2,749 nm / 5,090 km
Max Altitude 0 ft / 0 m
Waypoints 3
Social Downloads 1
Likes 0
Share VATSIM

Download

Looking for another format? Having issues loading an existing format? Contact us
Advertisement - Login to hide

Notes

Generated

Route

NFFN LIH08 PHLI

ID Type Via Altitude Latitude Longitude Leg Dist Tot Dist Heading (true) Name
O NFFN APT - 0 ft / 0 m -17.75352˚ 177.43591˚ - 0 nm - -
LIH08 FIX - 0 ft / 0 m 21.94302˚ -159.38017˚ 2746 nm 2746 nm 31° / 32° -
O PHLI APT - 0 ft / 0 m 21.97291˚ -159.34882˚ 2 nm 2748 nm 44° / 44° -

Altitude Profile

Advertisement - Login to hide

Weather


0- 5 10 15 20 25 30 35+ Temperature / ° C

Clouds and Precipitation
Forecast for 2017-12-14 18:00 UTC. Updated 4 minutes ago

Ground ~20,000 ft ~40,000 ft Winds

NFFN

Details ICAO NFFN (NAN)
Name Nadi Intl
Region Fiji and Tonga
Timezone Pacific/Fiji (UTC+13.0)
Stats Elevation 59 ft / 18 m (AMSL)
Location -17.758366° 177.442147°
Runways 2
Magnetic Variation 12.400° E

METAR

NFFN 141500Z 00000KT 9999 SCT027 BKN048 BKN120 25/24 Q1007 NOSIG

Decode

TAF

TAF NFFN 141107Z 1412/1512 12007KT 9999 -SHRA SCT024 BKN045 BECMG 1421/1423 28010KT PROB30 TEMPO 1500/1512 5000 TSRA FEW020CB

Decode

Departure Runways

ID Width Length Bearing (true) Bearing (mag) Surface Threshold Offset Overrun Length
02 151 ft / 46 m 10,529 ft / 3,209 m 37.50° 25.10° Asphalt 0 ft / 0 m 0 ft / 0 m
09 151 ft / 46 m 6,989 ft / 2,130 m 104.20° 91.80° Asphalt 0 ft / 0 m 95 ft / 29 m
20 151 ft / 46 m 10,529 ft / 3,209 m 217.50° 205.10° Asphalt 0 ft / 0 m 0 ft / 0 m
27 151 ft / 46 m 6,989 ft / 2,130 m 284.20° 271.80° Asphalt 0 ft / 0 m 0 ft / 0 m

PHLI

Details ICAO PHLI (LIH)
Name Lihue - Kauai
Region USA (Hawaii)
Timezone Pacific/Honolulu (UTC-10.0)
Stats Elevation 153 ft / 47 m (AMSL)
Location 21.975984° -159.338958°
Runways 2
Magnetic Variation 9.458° E

METAR

PHLI 141453Z AUTO 03022KT 10SM FEW034 SCT047 19/13 A3009

Decode

TAF

TAF PHLI 141139Z 1412/1512 01016G24KT P6SM SCT030 BKN045 FM141900 03020G30KT P6SM FEW030 BKN045

Decode

Destination Runways

ID Width Length Bearing (true) Bearing (mag) Surface Threshold Offset Overrun Length
03 151 ft / 46 m 6,510 ft / 1,984 m 44.84° 35.38° Asphalt 0 ft / 0 m 230 ft / 70 m
17 151 ft / 46 m 6,529 ft / 1,990 m 180.01° 170.55° Asphalt 0 ft / 0 m 200 ft / 61 m
21 151 ft / 46 m 6,510 ft / 1,984 m 224.84° 215.38° Asphalt 203 ft / 62 m 92 ft / 28 m
35 151 ft / 46 m 6,529 ft / 1,990 m 0.01° 350.55° Asphalt 0 ft / 0 m 213 ft / 65 m

Approach Navaids

Runway Type Ident Frequency Range Bearing (true) Bearing (mag) Slope Elevation
35 Localiser ILIH 110.90 MHz 18 nm / 33 km 0.01° 350.56° - 92 ft / 28 m (AMSL)
35 Glidescope ILIH 110.90 MHz 10 nm / 19 km 0.01° 350.56° 3.00° 92 ft / 28 m (AMSL)
35 DME ILIH 110.90 MHz 18 nm / 33 km - - - 92 ft / 28 m (AMSL)